Latest Weather Observations for Yamba

IDN60801

Issued at 10:42 am EDT Saturday 15 December 2018 (issued every 10 minutes, with the page automatically refreshed every 10 minutes)

About weather observations | Map of weather stations | Latest weather observations for NSW | Other Formats
Station Details ID: 058012 Name: YAMBA PILOT STATION Lat: -29.43 Lon: 153.36 Height: 27.4 m
Data from the previous 72 hours. | See also: Recent months at Yamba
Date/Time
EDT
Temp
°C
App
Temp
°C
Dew
Point
°C
Rel
Hum
%
Delta-T
°C
Wind Press
QNH
hPa
Press
MSL
hPa
Rain since
9am
mm
Dir  Spd
km/h
Gust
km/h
Spd
kts
Gust
kts
15/10:30am 25.4 28.1 23.5 89 1.3 NE 15 24 8 13 1009.5 1009.4 0.0
15/10:00am 25.5 28.5 23.4 88 1.4 NE 13 19 7 10 1009.3 1009.2 0.0
15/09:30am 25.1 28.2 24.2 95 0.6 NNE 15 24 8 13 1009.3 1009.2 0.0
15/09:00am 24.2 28.3 23.9 98 0.2 NNE 9 17 5 9 1009.4 1009.3 0.0
15/08:30am 23.4 26.3 23.2 99 0.1 NNE 13 22 7 12 1009.2 1009.1 0.0
15/08:00am 22.6 24.7 22.4 99 0.1 NE 15 22 8 12 1008.8 1008.7 0.0
15/07:30am 22.2 25.3 22.2 100 0.0 N 9 17 5 9 1008.6 1008.5 0.0
15/07:00am 22.0 25.0 22.0 100 0.0 NNE 9 17 5 9 1008.4 1008.3 0.0
15/06:30am 22.2 24.9 22.2 100 0.0 NNE 11 19 6 10 1007.9 1007.8 0.0
15/06:00am 22.3 25.1 22.3 100 0.0 NNE 11 20 6 11 1007.5 1007.4 0.0
15/05:30am 22.3 24.3 22.3 100 0.0 NNE 15 28 8 15 1007.4 1007.3 0.0
15/05:00am 21.8 24.3 21.8 100 0.0 NNE 11 20 6 11 1006.7 1006.6 0.0
15/04:30am 21.9 24.9 21.9 100 0.0 NNE 9 19 5 10 1006.2 1006.1 0.0
15/04:00am 22.4 24.1 22.4 100 0.0 NNE 17 28 9 15 1006.1 1006.0 0.0
15/03:30am 22.1 24.0 22.1 100 0.0 NE 15 24 8 13 1006.0 1005.9 0.0
15/03:00am 21.9 24.9 21.9 100 0.0 NNE 9 17 5 9 1006.3 1006.2 0.0
15/02:30am 22.1 25.2 22.1 100 0.0 N 9 15 5 8 1006.2 1006.1 0.0
15/02:00am 22.4 24.9 22.4 100 0.0 NNE 13 20 7 11 1006.4 1006.3 0.0
15/01:30am 22.5 23.9 22.5 100 0.0 NNE 19 28 10 15 1006.5 1006.4 0.0
15/01:00am 22.7 24.0 22.7 100 0.0 NNE 20 35 11 19 1007.2 1007.1 0.0
15/12:30am 22.6 23.7 22.4 99 0.1 NNE 20 32 11 17 1007.0 1006.9 0.0
15/12:00am 22.8 23.7 22.6 99 0.1 NNE 22 35 12 19 1006.9 1006.8 0.0
 
Date/Time
EDT
Temp
°C
App
Temp
°C
Dew
Point
°C
Rel
Hum
%
Delta-T
°C
Wind Press
QNH
hPa
Press
MSL
hPa
Rain since
9am
mm
Dir  Spd
km/h
Gust
km/h
Spd
kts
Gust
kts
14/11:30pm 22.6 23.7 22.4 99 0.1 NNE 20 32 11 17 1006.6 1006.5 0.0
14/11:00pm 22.8 23.7 22.6 99 0.1 NNE 22 35 12 19 1006.7 1006.6 0.0
14/10:30pm 22.9 23.4 22.7 99 0.1 NNE 24 39 13 21 1006.3 1006.2 0.0
14/10:00pm 22.4 23.4 22.2 99 0.1 NE 20 30 11 16 1006.1 1006.0 0.0
14/09:30pm 22.6 23.4 22.4 99 0.1 NNE 22 33 12 18 1005.9 1005.8 0.0
14/09:00pm 22.2 22.7 22.0 99 0.1 NNE 22 33 12 18 1005.9 1005.8 0.0
14/08:30pm 22.3 24.2 22.1 99 0.1 N 15 28 8 15 1006.4 1006.3 0.0
14/08:00pm 22.6 24.3 22.4 99 0.1 NNE 17 28 9 15 1005.0 1004.9 0.0
14/07:30pm 22.5 24.9 22.3 99 0.1 NNE 13 26 7 14 1005.1 1005.0 0.0
14/07:00pm 22.9 24.8 22.7 99 0.1 NNE 17 32 9 17 1003.9 1003.8 0.0
14/06:30pm 23.0 24.6 22.8 99 0.1 NNE 19 33 10 18 1003.4 1003.3 0.0
14/06:00pm 23.5 25.7 23.2 98 0.2 NNE 17 39 9 21 1003.1 1003.0 0.0
14/05:30pm 23.6 24.5 23.3 98 0.2 NE 24 35 13 19 1002.7 1002.6 0.0
14/05:00pm 24.1 25.1 22.9 93 0.8 NE 22 33 12 18 1002.4 1002.3 0.0
14/04:30pm 25.0 25.6 22.1 84 1.9 NE 22 35 12 19 1002.8 1002.7 0.0
14/04:00pm 25.8 26.3 21.9 79 2.6 NNE 22 33 12 18 1003.1 1003.0 0.0
14/03:30pm 26.7 27.3 21.0 71 3.8 NNE 19 30 10 16 1003.2 1003.1 0.0
14/03:00pm 25.7 26.9 22.2 81 2.4 NE 19 28 10 15 1003.4 1003.3 0.0
14/02:30pm 26.2 27.9 23.1 83 2.1 NE 19 28 10 15 1003.7 1003.6 0.0
14/02:00pm 27.3 30.7 23.3 79 2.7 N 11 19 6 10 1004.0 1003.9 0.0
14/01:30pm 27.4 31.8 25.0 87 1.7 N 11 19 6 10 1004.3 1004.2 0.0
14/01:00pm 25.0 28.8 23.4 91 1.1 N 9 17 5 9 1004.3 1004.2 0.0
14/12:30pm 24.8 28.7 23.6 93 0.8 N 9 15 5 8 1004.4 1004.3 0.0
14/12:00pm 24.9 28.9 24.4 97 0.3 NNE 11 20 6 11 1004.4 1004.3 0.0
14/11:30am 25.0 29.6 24.7 98 0.2 N 9 19 5 10 1004.6 1004.5 0.0
14/11:00am 24.3 28.4 24.0 98 0.2 N 9 17 5 9 1004.5 1004.4 0.0
14/10:30am 23.1 26.6 22.9 99 0.1 N 9 15 5 8 1004.8 1004.7 0.0
14/10:00am 22.8 26.5 22.6 99 0.1 N 7 13 4 7 1004.9 1004.8 0.0
14/09:30am 22.4 25.9 22.2 99 0.1 N 7 11 4 6 1004.9 1004.8 0.0
14/09:00am 22.4 25.5 22.2 99 0.1 N 9 15 5 8 1004.8 1004.7 10.4
14/08:30am 22.1 25.1 21.9 99 0.1 NNE 9 13 5 7 1004.8 1004.7 10.4
14/08:00am 21.8 25.0 21.6 99 0.1 N 7 11 4 6 1004.9 1004.8 10.4
14/07:30am 21.7 25.0 21.5 99 0.1 NNE 6 11 3 6 1004.7 1004.6 10.4
14/07:00am 21.7 24.8 21.5 99 0.1 ENE 7 9 4 5 1004.4 1004.3 10.4
14/06:30am 21.6 24.7 21.4 99 0.1 NE 7 9 4 5 1004.3 1004.2 10.4
14/06:00am 21.3 24.2 21.1 99 0.1 NNE 7 11 4 6 1003.8 1003.7 10.4
14/05:30am 21.2 24.6 21.0 99 0.1 N 4 7 2 4 1003.7 1003.6 10.4
14/05:00am 21.4 24.4 21.2 99 0.1 NNW 7 9 4 5 1003.7 1003.6 10.4
14/04:30am 21.7 24.8 21.5 99 0.1 WNW 7 11 4 6 1003.4 1003.3 10.4
14/04:00am 21.7 24.5 21.5 99 0.1 WSW 9 11 5 6 1003.1 1003.0 10.4
14/03:30am 21.6 24.9 21.4 99 0.1 NW 6 9 3 5 1003.2 1003.1 10.4
14/03:00am 21.7 24.2 21.7 100 0.0 WNW 11 17 6 9 1003.3 1003.2 10.4
14/02:30am 21.4 23.7 21.4 100 0.0 N 11 26 6 14 1002.3 1002.2 10.2
14/02:00am 21.4 23.7 21.4 100 0.0 N 11 20 6 11 1003.1 1003.0 10.2
14/01:30am 21.6 23.6 21.6 100 0.0 NNE 13 22 7 12 1003.6 1003.5 10.0
14/01:00am 21.5 24.2 21.3 99 0.1 N 9 15 5 8 1004.5 1004.4 9.0
14/12:30am 21.5 24.7 21.3 99 0.1 NNW 6 9 3 5 1005.1 1005.0 8.6
14/12:00am 21.6 24.9 21.4 99 0.1 N 6 11 3 6 1005.4 1005.3 8.6
 
Date/Time
EDT
Temp
°C
App
Temp
°C
Dew
Point
°C
Rel
Hum
%
Delta-T
°C
Wind Press
QNH
hPa
Press
MSL
hPa
Rain since
9am
mm
Dir  Spd
km/h
Gust
km/h
Spd
kts
Gust
kts
13/11:30pm 21.6 24.9 21.4 99 0.1 ESE 6 9 3 5 1005.9 1005.8 8.6
13/11:00pm 21.8 25.6 21.6 99 0.1 E 4 9 2 5 1006.4 1006.3 8.4
13/10:30pm 21.8 25.2 21.6 99 0.1 E 6 9 3 5 1006.5 1006.4 8.2
13/10:00pm 21.8 24.6 21.6 99 0.1 ENE 9 13 5 7 1006.3 1006.2 8.0
13/09:30pm 22.0 25.3 21.8 99 0.1 NNE 7 13 4 7 1006.1 1006.0 6.8
13/09:00pm 22.0 24.9 21.8 99 0.1 N 9 19 5 10 1005.7 1005.6 5.6
13/08:30pm 22.0 24.2 21.8 99 0.1 NNE 13 20 7 11 1005.0 1004.9 4.4
13/08:00pm 22.4 24.7 22.1 98 0.2 N 13 22 7 12 1003.9 1003.8 0.0
13/07:30pm 22.7 24.3 21.5 93 0.8 N 15 26 8 14 1003.3 1003.2 0.0
13/07:00pm 22.8 24.1 21.6 93 0.8 NNE 17 28 9 15 1002.7 1002.6 0.0
13/06:30pm 23.1 23.8 21.5 91 1.1 NNE 20 39 11 21 1002.0 1001.9 0.0
13/06:00pm 23.6 23.4 21.3 87 1.5 NNE 24 44 13 24 1001.9 1001.8 0.0
13/05:30pm 24.2 24.7 21.1 83 2.0 NNE 20 35 11 19 1001.6 1001.5 0.0
13/05:00pm 24.8 24.1 21.1 80 2.4 NNE 26 44 14 24 1001.8 1001.7 0.0
13/04:30pm 24.8 23.7 21.1 80 2.4 NNE 28 44 15 24 1001.7 1001.6 0.0
13/04:00pm 26.2 24.8 20.5 71 3.8 NNE 28 46 15 25 1001.9 1001.8 0.0
13/03:59pm 26.5 25.3 20.8 71 3.8 NNE 28 46 15 25 1001.9 1001.8 0.0
13/03:30pm 27.5 27.8 20.8 67 4.4 NNE 20 37 11 20 1002.8 1002.7 0.0
13/03:00pm 26.9 27.2 20.7 69 4.1 NNE 20 39 11 21 1003.7 1003.6 0.0
13/02:30pm 28.4 28.7 20.7 63 5.1 NNE 20 33 11 18 1004.1 1004.0 0.0
13/02:00pm 28.3 28.0 21.1 65 4.8 NNE 24 41 13 22 1004.7 1004.6 0.0
13/01:30pm 28.6 28.6 20.9 63 5.1 NNE 22 35 12 19 1005.3 1005.2 0.0
13/01:00pm 28.0 28.1 20.3 63 5.1 NNE 20 32 11 17 1005.8 1005.7 0.0
13/12:30pm 27.6 28.4 20.7 66 4.6 NNE 17 28 9 15 1006.3 1006.2 0.0
13/12:00pm 27.5 28.0 20.1 64 4.9 NNE 17 26 9 14 1006.8 1006.7 0.0
13/11:30am 26.8 29.0 21.1 71 3.8 NNE 11 17 6 9 1007.5 1007.4 0.0
13/11:00am 26.5 28.9 21.5 74 3.3 NNE 11 20 6 11 1007.7 1007.6 0.0
13/10:30am 25.4 27.9 21.1 77 2.8 N 9 17 5 9 1008.0 1007.9 0.0
13/10:00am 25.2 28.5 21.5 80 2.5 N 6 11 3 6 1008.5 1008.4 0.0
13/09:30am 24.2 27.2 20.9 82 2.2 N 6 9 3 5 1008.9 1008.8 0.0
13/09:00am 23.7 26.6 20.6 83 2.0 NNE 6 11 3 6 1009.0 1008.9 1.2
13/08:30am 23.5 27.1 22.3 93 0.8 N 7 11 4 6 1009.2 1009.1 1.2
13/08:00am 22.4 26.7 21.9 97 0.3 N 2 6 1 3 1009.4 1009.3 1.2
13/07:30am 22.0 25.2 21.7 98 0.2 NNW 7 11 4 6 1009.5 1009.4 1.2
13/07:00am 20.8 23.5 20.6 99 0.1 NNW 7 11 4 6 1009.4 1009.3 1.2
13/06:30am 20.1 22.4 19.8 98 0.2 N 7 11 4 6 1009.1 1009.0 1.2
13/06:00am 20.4 22.5 20.2 99 0.1 NNW 9 13 5 7 1009.1 1009.0 1.2
13/05:30am 20.6 22.8 20.4 99 0.1 NNW 9 13 5 7 1009.1 1009.0 1.2
13/05:00am 20.5 23.2 20.2 98 0.2 NNW 6 7 3 4 1008.8 1008.7 1.2
13/04:30am 20.9 23.6 20.6 98 0.2 N 7 11 4 6 1008.8 1008.7 1.2
13/04:00am 20.7 23.3 20.4 98 0.2 N 7 11 4 6 1009.2 1009.1 1.2
13/03:30am 20.5 22.2 20.2 98 0.2 N 11 15 6 8 1009.2 1009.1 1.2
13/03:00am 20.7 22.5 20.4 98 0.2 NNW 11 13 6 7 1009.2 1009.1 1.2
13/02:30am 21.0 23.3 20.7 98 0.2 NNW 9 13 5 7 1010.1 1010.0 1.2
13/02:00am 20.9 23.2 20.6 98 0.2 NNW 9 13 5 7 1010.4 1010.3 1.2
13/01:30am 21.0 23.7 20.7 98 0.2 NNW 7 11 4 6 1010.5 1010.4 1.2
13/01:00am 21.0 23.4 20.8 99 0.1 NNW 9 13 5 7 1011.0 1010.9 1.2
13/12:30am 20.9 23.2 20.7 99 0.1 N 9 13 5 7 1010.8 1010.7 1.2
13/12:00am 20.9 23.6 20.7 99 0.1 N 7 11 4 6 1011.2 1011.1 1.2
 
Date/Time
EDT
Temp
°C
App
Temp
°C
Dew
Point
°C
Rel
Hum
%
Delta-T
°C
Wind Press
QNH
hPa
Press
MSL
hPa
Rain since
9am
mm
Dir  Spd
km/h
Gust
km/h
Spd
kts
Gust
kts
12/11:30pm 21.1 23.9 20.9 99 0.1 N 7 13 4 7 1011.6 1011.5 1.2
12/11:00pm 21.1 24.1 20.9 99 0.1 N 6 9 3 5 1011.5 1011.4 1.2
12/10:30pm 21.0 23.4 20.8 99 0.1 NNW 9 11 5 6 1012.0 1011.9 1.2
12/10:00pm 21.0 23.4 20.8 99 0.1 N 9 13 5 7 1012.1 1012.0 1.2
12/09:30pm 21.2 23.7 21.0 99 0.1 N 9 13 5 7 1012.1 1012.0 1.0
12/09:00pm 21.3 24.2 21.0 98 0.2 N 7 11 4 6 1012.2 1012.1 1.0
12/08:30pm 21.3 23.8 21.0 98 0.2 N 9 11 5 6 1012.5 1012.3 0.8
12/08:00pm 21.5 24.1 21.2 98 0.2 N 9 11 5 6 1012.6 1012.4 0.6
12/07:30pm 22.1 25.1 21.3 95 0.5 N 7 11 4 6 1012.8 1012.6 0.6
12/07:00pm 22.8 24.7 19.8 83 1.9 NE 9 15 5 8 1012.6 1012.4 0.2
12/06:30pm 23.0 24.4 19.6 81 2.2 ENE 11 17 6 9 1011.7 1011.6 0.2
12/06:00pm 23.6 25.6 19.9 80 2.4 ENE 9 13 5 7 1011.5 1011.4 0.2
12/05:30pm 23.7 25.3 19.2 76 2.9 NE 9 15 5 8 1011.6 1011.5 0.2
12/05:00pm 24.1 25.9 19.6 76 2.9 ENE 9 17 5 9 1011.4 1011.3 0.2
12/04:30pm 24.3 26.6 20.6 80 2.4 E 9 13 5 7 1011.3 1011.2 0.2
12/04:00pm 24.8 26.7 20.5 77 2.8 ESE 11 13 6 7 1011.6 1011.5 0.2
12/03:30pm 25.7 27.8 20.9 75 3.2 ESE 11 15 6 8 1012.1 1012.0 0.2
12/03:00pm 26.1 28.1 21.5 76 3.1 ESE 13 17 7 9 1012.7 1012.5 0.2
12/02:30pm 25.3 26.8 20.5 75 3.1 SE 13 19 7 10 1013.0 1012.8 0.2
12/02:00pm 25.1 26.3 20.6 76 2.9 SE 15 20 8 11 1013.4 1013.2 0.2
12/01:30pm 25.7 26.7 21.1 76 3.0 SE 17 20 9 11 1013.7 1013.5 0.2
12/01:00pm 25.1 26.7 21.4 80 2.4 SE 15 19 8 10 1014.0 1013.8 0.0
12/12:30pm 24.1 24.4 20.4 80 2.4 SE 19 24 10 13 1014.3 1014.1 0.0
12/12:00pm 24.7 24.8 21.2 81 2.3 SSE 22 26 12 14 1014.7 1014.5 0.0
12/11:30am 23.7 24.6 21.6 88 1.4 SSE 19 22 10 12 1015.0 1014.8 0.0
12/11:00am 24.0 24.9 21.9 88 1.4 SSE 20 24 11 13 1015.1 1014.9 0.0

Other Formats:

Comma delimited format used in spreadsheet applications
http://www.bom.gov.au/fwo/IDN60801/IDN60801.94589.axf

JavaScript Object Notation format (JSON) in row-major order
http://www.bom.gov.au/fwo/IDN60801/IDN60801.94589.json